Time;durP1;ratioP1;P1;durP2;ratioP2;P2;SDS_P1;SDS_P2;PMS_P1;PMS_P2;Temp;Humidity;BMP_temperature;BMP_pressure;BME280_temperature;BME280_humidity;BME280_pressure;Samples;Min_cycle;Max_cycle;Signal;HPM_P1;HPM_P2
2020/12/28 00:00:30;;;;;;;17.65;11.12;;;;;;;-1.60;80.42;97528.89;1850037;77;21185;-67
2020/12/28 00:03:03;;;;;;;16.10;10.30;;;;;;;-1.59;80.46;97509.25;1841448;77;20917;-67
2020/12/28 00:05:31;;;;;;;16.17;8.20;;;;;;;-1.62;80.34;97531.94;1848915;75;21467;-67
2020/12/28 00:08:01;;;;;;;17.32;9.83;;;;;;;-1.67;80.27;97529.97;1836149;77;20978;-67
2020/12/28 00:10:30;;;;;;;15.90;10.35;;;;;;;-1.72;80.34;97531.84;1838615;77;20946;-67
2020/12/28 00:13:03;;;;;;;18.87;8.85;;;;;;;-1.73;80.38;97510.16;1840260;77;21400;-67
2020/12/28 00:15:32;;;;;;;19.65;10.58;;;;;;;-1.75;80.25;97528.11;1844554;76;20978;-67
2020/12/28 00:18:02;;;;;;;16.37;8.85;;;;;;;-1.73;80.40;97517.39;1833889;77;21100;-67
2020/12/28 00:20:31;;;;;;;16.37;9.80;;;;;;;-1.71;80.27;97515.63;1833715;77;21036;-67
2020/12/28 00:23:01;;;;;;;17.55;9.68;;;;;;;-1.72;80.31;97526.73;1844731;77;21549;-68
2020/12/28 00:25:29;;;;;;;17.48;9.68;;;;;;;-1.76;80.21;97507.27;1839200;77;21206;-67
2020/12/28 00:27:58;;;;;;;19.90;10.00;;;;;;;-1.81;80.16;97509.13;1844159;77;21079;-67
2020/12/28 00:30:26;;;;;;;19.40;10.32;;;;;;;-1.88;80.17;97507.64;1849726;77;21005;-67
2020/12/28 00:32:55;;;;;;;17.30;9.25;;;;;;;-1.94;80.26;97510.41;1841631;77;20907;-67
2020/12/28 00:35:24;;;;;;;17.23;10.05;;;;;;;-1.99;80.19;97508.44;1845477;75;20985;-67
2020/12/28 00:37:51;;;;;;;21.75;10.80;;;;;;;-2.03;80.36;97503.42;1852723;77;21235;-67
2020/12/28 00:40:19;;;;;;;18.42;7.87;;;;;;;-2.07;80.30;97498.03;1829149;77;28810;-67
2020/12/28 00:42:49;;;;;;;18.50;11.03;;;;;;;-2.12;80.28;97505.01;1849001;77;21025;-67
2020/12/28 00:45:18;;;;;;;16.87;10.55;;;;;;;-2.18;80.33;97507.77;1847945;75;21064;-67
2020/12/28 00:47:46;;;;;;;16.97;10.48;;;;;;;-2.24;80.38;97513.08;1830999;77;21063;-67
2020/12/28 00:50:14;;;;;;;14.20;8.75;;;;;;;-2.30;80.40;97499.19;1849685;75;21128;-67
2020/12/28 00:52:42;;;;;;;16.42;9.55;;;;;;;-2.32;80.47;97489.47;1844387;77;21127;-67
2020/12/28 00:55:10;;;;;;;13.65;9.65;;;;;;;-2.35;80.50;97497.20;1831683;77;20981;-67
2020/12/28 00:57:40;;;;;;;17.57;10.53;;;;;;;-2.38;80.54;97485.80;1836960;77;21007;-67
2020/12/28 01:00:08;;;;;;;19.02;10.18;;;;;;;-2.40;80.61;97483.76;1840837;75;20988;-67
2020/12/28 01:02:37;;;;;;;13.05;8.20;;;;;;;-2.39;80.72;97480.30;1834398;77;21192;-67
2020/12/28 01:05:06;;;;;;;18.87;10.25;;;;;;;-2.35;80.75;97479.31;1838313;77;21091;-67
2020/12/28 01:07:35;;;;;;;17.12;10.28;;;;;;;-2.33;80.79;97464.77;1839131;77;21025;-67
2020/12/28 01:10:03;;;;;;;19.12;10.40;;;;;;;-2.30;80.78;97460.84;1823346;77;20985;-67
2020/12/28 01:12:55;;;;;;;17.17;9.33;;;;;;;-2.28;80.80;97459.91;1827898;77;20996;-67
2020/12/28 01:15:24;;;;;;;16.80;10.72;;;;;;;-2.27;80.79;97460.32;1657149;85;21337;-68
2020/12/28 01:17:53;;;;;;;16.65;9.80;;;;;;;-2.27;80.79;97455.63;1650642;85;21126;-68
2020/12/28 01:20:22;;;;;;;21.62;10.72;;;;;;;-2.27;80.85;97459.05;1651145;85;21684;-68
2020/12/28 01:22:51;;;;;;;17.32;8.93;;;;;;;-2.26;80.87;97448.37;1652155;85;21031;-68
2020/12/28 01:25:19;;;;;;;16.62;9.30;;;;;;;-2.24;80.96;97449.16;1650175;86;21076;-68
2020/12/28 01:27:46;;;;;;;14.70;9.18;;;;;;;-2.18;81.05;97452.80;1651803;85;21230;-68
2020/12/28 01:30:15;;;;;;;13.08;7.78;;;;;;;-2.14;81.06;97445.41;1652499;85;21589;-68
2020/12/28 01:32:44;;;;;;;15.20;7.25;;;;;;;-2.12;81.00;97438.53;1642909;86;21079;-68
2020/12/28 01:35:13;;;;;;;13.48;9.85;;;;;;;-2.08;80.98;97437.53;1646810;86;21162;-68
2020/12/28 01:37:40;;;;;;;17.50;8.90;;;;;;;-2.04;81.05;97445.95;1651503;86;21181;-68
2020/12/28 01:40:07;;;;;;;19.55;9.68;;;;;;;-2.03;81.05;97444.61;1651557;85;21405;-68
2020/12/28 01:42:36;;;;;;;16.50;8.73;;;;;;;-2.00;81.01;97431.34;1655017;85;21094;-68
2020/12/28 01:45:06;;;;;;;13.60;7.92;;;;;;;-1.96;81.08;97448.23;1651698;86;20926;-68
2020/12/28 01:47:38;;;;;;;18.65;10.60;;;;;;;-1.92;81.11;97439.14;1650552;86;21537;-68
2020/12/28 01:50:10;;;;;;;14.23;8.93;;;;;;;-1.85;81.19;97438.06;1652172;84;21091;-68
2020/12/28 01:52:39;;;;;;;16.80;8.80;;;;;;;-1.80;81.19;97434.05;1651407;85;21227;-68
2020/12/28 01:55:07;;;;;;;18.60;9.25;;;;;;;-1.72;81.20;97452.53;1652411;86;21138;-68
2020/12/28 01:57:37;;;;;;;13.72;7.37;;;;;;;-1.66;81.23;97443.36;1650693;85;20966;-68
2020/12/28 02:00:06;;;;;;;17.00;9.08;;;;;;;-1.60;81.13;97439.33;1629182;85;20980;-68
2020/12/28 02:02:34;;;;;;;17.80;8.38;;;;;;;-1.54;81.11;97437.42;1650883;85;20998;-68
2020/12/28 02:05:02;;;;;;;11.75;7.97;;;;;;;-1.50;81.08;97441.56;1651027;86;21187;-68
2020/12/28 02:07:34;;;;;;;12.15;7.78;;;;;;;-1.48;81.01;97455.14;1650891;86;21076;-68
2020/12/28 02:10:07;;;;;;;16.05;8.80;;;;;;;-1.47;81.00;97449.13;1650686;86;21542;-68
2020/12/28 02:12:38;;;;;;;17.32;8.85;;;;;;;-1.47;81.05;97447.39;1651584;86;21009;-68
2020/12/28 02:15:07;;;;;;;15.15;9.33;;;;;;;-1.47;81.01;97437.16;1649371;85;21056;-68
2020/12/28 02:17:36;;;;;;;16.93;9.03;;;;;;;-1.46;81.07;97437.98;1649195;85;21155;-68
2020/12/28 02:20:05;;;;;;;14.55;8.68;;;;;;;-1.45;81.11;97434.56;1648990;85;20969;-68
2020/12/28 02:22:33;;;;;;;16.20;8.80;;;;;;;-1.43;81.16;97425.08;1640197;87;20989;-68
2020/12/28 02:25:01;;;;;;;16.75;9.45;;;;;;;-1.41;81.21;97430.53;1621452;87;21141;-68
2020/12/28 02:27:30;;;;;;;17.12;10.08;;;;;;;-1.39;81.21;97429.21;1625572;87;21143;-68
2020/12/28 02:29:58;;;;;;;14.68;8.70;;;;;;;-1.35;81.21;97426.47;1595095;90;21443;-68
2020/12/28 02:32:28;;;;;;;14.68;8.63;;;;;;;-1.32;81.28;97411.45;1641896;86;21397;-68
2020/12/28 02:34:59;;;;;;;17.23;8.33;;;;;;;-1.29;81.23;97412.61;1641968;87;20974;-68
2020/12/28 02:37:27;;;;;;;15.25;9.00;;;;;;;-1.25;81.22;97408.23;1646672;87;21076;-68
2020/12/28 02:39:55;;;;;;;13.80;8.90;;;;;;;-1.23;81.23;97415.39;1647190;87;20961;-68
2020/12/28 02:42:24;;;;;;;14.38;8.80;;;;;;;-1.22;81.28;97410.68;1647099;87;21145;-68
2020/12/28 02:44:52;;;;;;;16.30;9.75;;;;;;;-1.19;81.25;97403.70;1648017;85;21064;-68
2020/12/28 02:47:20;;;;;;;17.57;9.98;;;;;;;-1.17;81.31;97403.22;1656001;85;21103;-68
2020/12/28 02:49:49;;;;;;;13.28;8.68;;;;;;;-1.14;81.31;97403.09;1631681;86;21198;-68
2020/12/28 02:52:17;;;;;;;14.83;9.75;;;;;;;-1.10;81.32;97401.70;1648925;86;21214;-68
2020/12/28 02:54:45;;;;;;;17.95;9.70;;;;;;;-1.09;81.32;97391.83;1655126;85;21200;-68
2020/12/28 02:57:13;;;;;;;15.13;9.83;;;;;;;-1.07;81.37;97411.83;1652769;85;21071;-68
2020/12/28 02:59:41;;;;;;;16.12;9.95;;;;;;;-1.04;81.39;97414.27;1650970;85;21030;-68
2020/12/28 03:02:09;;;;;;;13.40;8.03;;;;;;;-0.99;81.40;97402.95;1654015;85;21018;-68
2020/12/28 03:04:37;;;;;;;15.28;9.75;;;;;;;-0.95;81.36;97401.14;1649714;86;21115;-68
2020/12/28 03:07:05;;;;;;;14.13;9.00;;;;;;;-0.94;81.38;97400.23;1647465;86;21162;-68
2020/12/28 03:09:35;;;;;;;17.30;10.13;;;;;;;-0.93;81.40;97392.47;1641144;86;20985;-68
2020/12/28 03:12:03;;;;;;;19.65;10.25;;;;;;;-0.91;81.35;97389.86;1638508;86;21075;-68
2020/12/28 03:14:33;;;;;;;15.08;9.50;;;;;;;-0.89;81.40;97382.97;1647556;86;21232;-68
2020/12/28 03:17:00;;;;;;;19.92;10.68;;;;;;;-0.86;81.37;97387.97;1639079;86;21653;-68
2020/12/28 03:19:31;;;;;;;17.77;10.72;;;;;;;-0.85;81.38;97379.37;1646864;86;22112;-68
2020/12/28 03:22:00;;;;;;;22.98;10.58;;;;;;;-0.84;81.39;97387.47;1643645;86;20992;-68
2020/12/28 03:24:28;;;;;;;15.25;8.50;;;;;;;-0.84;81.36;97385.33;1645376;86;21158;-68
2020/12/28 03:27:02;;;;;;;23.73;10.43;;;;;;;-0.84;81.18;97376.36;1641603;86;21057;-68
2020/12/28 03:29:25;;;;;;;18.85;11.90;;;;;;;-0.86;81.30;97380.28;1644390;86;20924;-68
2020/12/28 03:31:53;;;;;;;23.47;11.45;;;;;;;-0.87;81.35;97383.72;1647553;86;21263;-68
2020/12/28 03:34:22;;;;;;;20.52;12.07;;;;;;;-0.88;81.37;97391.02;1637303;86;20973;-68
2020/12/28 03:36:50;;;;;;;20.40;11.73;;;;;;;-0.88;81.43;97391.48;1648624;86;21047;-68
2020/12/28 03:39:19;;;;;;;20.45;10.82;;;;;;;-0.92;81.36;97383.09;1604671;87;21228;-68
2020/12/28 03:41:47;;;;;;;16.60;9.38;;;;;;;-0.97;81.31;97390.11;1627594;87;21162;-68
2020/12/28 03:44:15;;;;;;;;;;;;;;;-1.05;81.33;97376.30;1635395;87;21239;-68
2020/12/28 03:46:43;;;;;;;22.73;11.38;;;;;;;-1.09;81.40;97377.75;1617217;88;20563;-68
2020/12/28 03:49:12;;;;;;;19.80;11.38;;;;;;;-1.14;81.55;97377.94;1610645;87;21028;-68
2020/12/28 03:51:39;;;;;;;18.02;11.48;;;;;;;-1.15;81.60;97377.11;1607270;87;21202;-68
2020/12/28 03:54:07;;;;;;;14.07;8.08;;;;;;;-1.16;81.59;97381.83;1643999;86;21211;-68
2020/12/28 03:56:35;;;;;;;19.85;10.90;;;;;;;-1.18;81.64;97370.80;1656013;86;21117;-68
2020/12/28 03:59:04;;;;;;;21.25;12.65;;;;;;;-1.17;81.73;97376.33;1651689;86;21252;-67
2020/12/28 04:01:33;;;;;;;20.95;11.38;;;;;;;-1.15;81.78;97360.47;1652670;86;20991;-68
2020/12/28 04:04:02;;;;;;;17.95;11.00;;;;;;;-1.14;81.79;97366.42;1642256;85;21240;-68
2020/12/28 04:06:30;;;;;;;13.43;7.80;;;;;;;-1.13;81.81;97371.91;1637988;85;21042;-67
2020/12/28 04:08:58;;;;;;;16.82;8.25;;;;;;;-1.13;81.84;97357.83;1657014;86;21440;-68
2020/12/28 04:11:26;;;;;;;19.73;11.48;;;;;;;-1.13;81.90;97364.23;1615458;88;21217;-68
2020/12/28 04:13:55;;;;;;;18.50;9.80;;;;;;;-1.11;81.89;97366.75;1604723;88;21200;-68
2020/12/28 04:16:24;;;;;;;20.25;12.50;;;;;;;-1.13;81.94;97361.22;1606740;88;21149;-68
2020/12/28 04:18:53;;;;;;;24.40;13.98;;;;;;;-1.15;81.89;97366.87;1608280;88;21925;-68
2020/12/28 04:21:21;;;;;;;19.27;12.40;;;;;;;-1.18;81.82;97364.39;1651304;85;21393;-68
2020/12/28 04:23:49;;;;;;;19.77;10.85;;;;;;;-1.23;81.88;97361.20;1652869;85;21141;-68
2020/12/28 04:26:18;;;;;;;22.42;10.80;;;;;;;-1.25;81.99;97364.70;1644769;85;21231;-68
2020/12/28 04:28:47;;;;;;;17.10;9.60;;;;;;;-1.27;82.11;97367.31;1632498;86;21125;-68
2020/12/28 04:31:17;;;;;;;19.62;9.70;;;;;;;-1.25;82.19;97360.87;1628226;85;21100;-68
2020/12/28 04:33:45;;;;;;;12.45;6.72;;;;;;;-1.23;82.31;97339.86;1662354;85;21670;-68
2020/12/28 04:36:14;;;;;;;16.12;9.58;;;;;;;-1.21;82.22;97352.99;1659498;85;20970;-68
2020/12/28 04:38:42;;;;;;;19.35;11.40;;;;;;;-1.21;82.26;97359.84;1658931;85;20983;-68
2020/12/28 04:41:13;;;;;;;14.78;10.15;;;;;;;-1.25;82.14;97365.54;1660300;85;21232;-68
2020/12/28 04:43:41;;;;;;;21.07;11.93;;;;;;;-1.28;82.27;97350.30;1655792;85;21182;-68
2020/12/28 04:46:09;;;;;;;21.30;10.32;;;;;;;-1.31;82.24;97352.97;1654370;85;22278;-68
2020/12/28 04:48:38;;;;;;;23.27;12.03;;;;;;;-1.32;82.40;97356.41;1651491;85;21227;-68
2020/12/28 04:51:07;;;;;;;16.02;9.60;;;;;;;-1.32;82.48;97350.45;1659500;85;21389;-68
2020/12/28 04:53:41;;;;;;;23.47;12.18;;;;;;;-1.33;82.57;97352.19;1657590;85;21089;-68
2020/12/28 04:56:09;;;;;;;16.73;10.98;;;;;;;-1.34;82.38;97353.09;1660409;85;21168;-68
2020/12/28 04:58:41;;;;;;;21.55;12.07;;;;;;;-1.38;82.47;97338.72;1657235;85;21210;-68
2020/12/28 05:01:09;;;;;;;19.77;11.83;;;;;;;-1.40;82.51;97334.09;1652521;85;21060;-68
2020/12/28 05:03:37;;;;;;;22.32;11.80;;;;;;;-1.43;82.57;97339.33;1629884;86;21102;-68
2020/12/28 05:06:05;;;;;;;23.55;13.38;;;;;;;-1.46;82.62;97340.73;1657154;86;21008;-68
2020/12/28 05:08:33;;;;;;;19.62;10.65;;;;;;;-1.51;82.58;97341.34;1654311;85;21593;-68
2020/12/28 05:11:14;;;;;;;21.20;12.07;;;;;;;-1.55;82.72;97343.63;1654304;86;21287;-68
2020/12/28 05:13:51;;;;;;;23.45;11.53;;;;;;;-1.58;82.69;97337.73;1606992;88;21643;-67
2020/12/28 05:16:20;;;;;;;16.55;8.88;;;;;;;-1.60;82.82;97337.39;1636925;86;21578;-67
2020/12/28 05:18:54;;;;;;;24.67;12.93;;;;;;;-1.63;82.91;97344.73;1634009;87;21630;-68
2020/12/28 05:21:27;;;;;;;20.20;11.80;;;;;;;-1.65;82.94;97332.47;1630546;87;21063;-67
2020/12/28 05:23:57;;;;;;;19.02;10.95;;;;;;;-1.69;82.84;97324.49;1629553;87;22516;-67
2020/12/28 05:26:27;;;;;;;21.23;13.72;;;;;;;-1.72;82.98;97327.17;1631835;87;21618;-68
2020/12/28 05:28:59;;;;;;;24.72;14.25;;;;;;;-1.74;83.07;97336.61;1632711;87;21202;-67
2020/12/28 05:31:29;;;;;;;22.17;12.78;;;;;;;-1.76;82.95;97326.91;1629391;87;21651;-68
2020/12/28 05:33:59;;;;;;;22.07;11.25;;;;;;;-1.78;83.31;97312.05;1631644;87;21196;-67
2020/12/28 05:36:30;;;;;;;18.50;10.60;;;;;;;-1.79;83.37;97310.39;1623075;87;22279;-67
2020/12/28 05:38:58;;;;;;;20.77;11.48;;;;;;;-1.79;83.28;97321.90;1629091;87;21053;-67
2020/12/28 05:41:30;;;;;;;24.07;14.07;;;;;;;-1.80;83.33;97313.81;1629568;87;21169;-67
2020/12/28 05:44:09;;;;;;;22.58;12.78;;;;;;;-1.79;83.41;97320.63;1630050;87;21185;-67
2020/12/28 05:46:38;;;;;;;18.57;11.10;;;;;;;-1.76;83.48;97316.67;1623013;87;21186;-67
2020/12/28 05:49:08;;;;;;;23.67;14.38;;;;;;;-1.73;83.60;97322.95;1634082;87;21238;-67
2020/12/28 05:51:36;;;;;;;19.77;13.93;;;;;;;-1.68;83.58;97324.05;1635712;87;21559;-67
2020/12/28 05:54:10;;;;;;;12.65;7.42;;;;;;;-1.65;83.67;97312.45;1628309;87;21087;-67
2020/12/28 05:56:43;;;;;;;19.45;12.60;;;;;;;-1.63;83.75;97307.62;1629902;87;21108;-68
2020/12/28 05:59:12;;;;;;;20.85;11.40;;;;;;;-1.61;83.70;97319.93;1625854;87;21191;-67
2020/12/28 06:01:44;;;;;;;24.05;13.00;;;;;;;-1.60;83.80;97301.15;1635739;87;21181;-67
2020/12/28 06:04:16;;;;;;;14.47;9.80;;;;;;;-1.58;83.60;97301.91;1624605;87;21160;-68
2020/12/28 06:06:45;;;;;;;23.15;10.25;;;;;;;-1.58;83.70;97290.39;1618276;87;21688;-67
2020/12/28 06:09:18;;;;;;;17.02;10.80;;;;;;;-1.59;83.79;97302.80;1628563;87;21052;-67
2020/12/28 06:11:46;;;;;;;15.43;8.95;;;;;;;-1.59;83.88;97310.48;1632679;87;21251;-67
2020/12/28 06:14:21;;;;;;;15.13;10.50;;;;;;;-1.62;83.94;97283.73;1630736;87;21245;-67
2020/12/28 06:16:50;;;;;;;14.60;9.10;;;;;;;-1.62;84.19;97290.13;1629720;87;21039;-68
2020/12/28 06:19:24;;;;;;;18.57;9.28;;;;;;;-1.63;84.14;97293.56;1633380;87;21230;-67
2020/12/28 06:21:53;;;;;;;18.25;10.48;;;;;;;-1.64;84.27;97279.11;1631612;87;21251;-67
2020/12/28 06:24:28;;;;;;;17.52;11.15;;;;;;;-1.64;84.38;97279.11;1636111;86;21147;-67
2020/12/28 06:27:06;;;;;;;16.95;10.08;;;;;;;-1.63;84.33;97278.20;1634228;85;21633;-68
2020/12/28 06:29:38;;;;;;;14.43;8.35;;;;;;;-1.60;84.68;97283.23;1620835;86;21048;-68
2020/12/28 06:32:14;;;;;;;21.48;11.97;;;;;;;-1.56;84.69;97288.23;1650031;86;20965;-68
2020/12/28 06:34:46;;;;;;;16.70;8.70;;;;;;;-1.52;84.58;97280.81;1633376;87;21223;-68
2020/12/28 06:37:19;;;;;;;18.32;8.73;;;;;;;-1.49;84.62;97284.09;1621363;86;21589;-65
2020/12/28 06:39:52;;;;;;;23.30;14.68;;;;;;;-1.44;84.56;97292.88;1642990;85;21746;-67
2020/12/28 06:42:21;;;;;;;20.72;13.25;;;;;;;-1.41;84.62;97304.28;1654821;85;21174;-67
2020/12/28 06:44:49;;;;;;;21.93;15.65;;;;;;;-1.37;84.61;97307.95;1631158;85;21097;-67
2020/12/28 06:47:23;;;;;;;16.07;8.93;;;;;;;-1.35;84.56;97292.07;1628123;87;20977;-67
2020/12/28 06:49:52;;;;;;;18.52;12.53;;;;;;;-1.33;84.54;97290.75;1625818;86;21162;-67
2020/12/28 06:52:20;;;;;;;22.32;14.68;;;;;;;-1.32;84.59;97287.28;1624559;87;21227;-68
2020/12/28 06:54:48;;;;;;;19.85;12.55;;;;;;;-1.31;84.54;97288.97;1597988;88;21200;-68
2020/12/28 06:57:17;;;;;;;17.48;10.43;;;;;;;-1.30;84.59;97282.95;1638909;86;21100;-68
2020/12/28 06:59:49;;;;;;;20.45;14.68;;;;;;;-1.29;84.71;97308.92;1626589;86;21261;-68
2020/12/28 07:02:18;;;;;;;25.90;14.35;;;;;;;-1.26;84.66;97297.31;1643975;86;21158;-67
2020/12/28 07:04:47;;;;;;;20.90;12.18;;;;;;;-1.22;84.71;97288.61;1595086;88;21662;-68
2020/12/28 07:07:15;;;;;;;18.12;11.35;;;;;;;-1.16;84.88;97290.92;1641161;86;20984;-67
2020/12/28 07:09:46;;;;;;;19.62;12.03;;;;;;;-1.11;84.81;97302.73;1596368;88;21217;-67
2020/12/28 07:12:14;;;;;;;19.95;11.35;;;;;;;-1.07;84.78;97295.30;1643144;85;21188;-68
2020/12/28 07:14:43;;;;;;;19.40;13.93;;;;;;;-1.03;84.78;97287.45;1623066;87;21186;-69
2020/12/28 07:17:13;;;;;;;19.67;14.78;;;;;;;-0.98;84.77;97296.20;1623703;86;21330;-67
2020/12/28 07:19:42;;;;;;;13.70;10.13;;;;;;;-0.94;84.74;97315.70;1612925;87;21254;-68
2020/12/28 07:22:11;;;;;;;17.25;11.70;;;;;;;-0.91;84.79;97309.17;1626071;86;21022;-68
2020/12/28 07:24:44;;;;;;;23.92;14.93;;;;;;;-0.86;84.79;97309.83;1619452;87;21527;-68
2020/12/28 07:27:13;;;;;;;20.32;11.90;;;;;;;-0.83;84.73;97310.16;1619206;87;21047;-68
2020/12/28 07:29:41;;;;;;;19.87;12.53;;;;;;;-0.81;84.86;97298.95;1621769;87;22223;-67
2020/12/28 07:32:09;;;;;;;18.48;11.93;;;;;;;-0.79;84.82;97312.52;1620850;86;21058;-67
2020/12/28 07:34:38;;;;;;;21.95;16.93;;;;;;;-0.78;84.86;97316.77;1646249;85;21190;-68
2020/12/28 07:37:06;;;;;;;23.75;14.00;;;;;;;-0.76;84.84;97320.08;1655381;86;21202;-67
2020/12/28 07:39:35;;;;;;;19.17;11.75;;;;;;;-0.75;84.85;97311.51;1656486;85;20963;-68
2020/12/28 07:42:03;;;;;;;22.27;14.75;;;;;;;-0.71;84.91;97318.16;1652087;85;21220;-67
2020/12/28 07:44:33;;;;;;;19.48;13.28;;;;;;;-0.69;84.88;97324.07;1658102;85;21627;-68
2020/12/28 07:47:09;;;;;;;18.00;10.90;;;;;;;-0.66;84.94;97326.13;1654302;85;21039;-68
2020/12/28 07:49:43;;;;;;;18.95;11.88;;;;;;;-0.63;85.00;97310.17;1649834;85;21751;-68
2020/12/28 07:52:24;;;;;;;17.25;12.00;;;;;;;-0.60;84.99;97307.94;1652107;85;21091;-68
2020/12/28 07:55:25;;;;;;;20.25;13.78;;;;;;;-0.55;84.96;97314.99;1864417;74;22782;-68
2020/12/28 07:58:33;;;;;;;20.97;13.60;;;;;;;-0.58;85.00;97317.69;1834039;77;21870;-67
2020/12/28 08:01:06;;;;;;;21.97;14.85;;;;;;;-0.55;85.01;97304.73;1807353;77;21469;-67
2020/12/28 08:03:48;;;;;;;19.32;13.05;;;;;;;-0.52;85.14;97302.05;1804813;77;20994;-67
2020/12/28 08:06:18;;;;;;;20.57;15.80;;;;;;;-0.49;85.13;97305.77;1806697;78;21018;-67
2020/12/28 08:08:46;;;;;;;20.50;14.03;;;;;;;-0.46;85.11;97313.33;1813952;78;21653;-67
2020/12/28 08:11:16;;;;;;;15.00;10.63;;;;;;;-0.44;85.10;97310.25;1815935;78;21035;-67
2020/12/28 08:13:44;;;;;;;141.55;36.25;;;;;;;-0.41;85.21;97310.13;1767474;78;22185;-68
2020/12/28 08:16:16;;;;;;;77.92;26.55;;;;;;;-0.34;85.50;97316.64;1798486;78;21009;-67
2020/12/28 08:18:53;;;;;;;26.65;16.77;;;;;;;-0.27;85.38;97310.37;1810040;78;21547;-67
2020/12/28 08:21:23;;;;;;;23.05;15.90;;;;;;;-0.20;85.14;97312.67;1804409;78;21514;-69
2020/12/28 08:23:53;;;;;;;20.20;14.28;;;;;;;-0.18;85.06;97305.77;1788134;79;20991;-69
2020/12/28 08:26:28;;;;;;;16.62;11.65;;;;;;;-0.16;85.16;97309.09;1793825;79;21440;-67
2020/12/28 08:29:02;;;;;;;24.00;15.95;;;;;;;-0.14;85.14;97307.28;1786826;78;21484;-69
2020/12/28 08:31:36;;;;;;;22.98;15.95;;;;;;;-0.12;85.11;97295.23;1792715;78;21020;-68
2020/12/28 08:34:12;;;;;;;23.80;14.93;;;;;;;-0.10;85.20;97301.14;1782605;79;21022;-68
2020/12/28 08:36:53;;;;;;;24.65;17.55;;;;;;;-0.08;85.20;97295.05;1792355;78;21040;-68
2020/12/28 08:39:28;;;;;;;35.23;23.18;;;;;;;-0.05;85.22;97302.60;1787196;78;21203;-69
2020/12/28 08:42:05;;;;;;;24.82;16.35;;;;;;;-0.02;85.16;97304.20;1790157;78;21036;-69
2020/12/28 08:44:43;;;;;;;44.67;25.97;;;;;;;0.00;85.24;97276.77;1789423;79;21079;-68
2020/12/28 08:47:14;;;;;;;25.50;14.47;;;;;;;0.04;85.20;97280.02;1783041;78;21064;-68
2020/12/28 08:49:46;;;;;;;36.90;23.35;;;;;;;0.06;85.25;97286.75;1782197;78;21680;-68
2020/12/28 08:52:22;;;;;;;30.57;18.67;;;;;;;0.12;85.27;97285.64;1783408;78;21199;-68
2020/12/28 08:55:00;;;;;;;28.95;19.55;;;;;;;0.15;85.27;97270.94;1755411;79;21483;-69
2020/12/28 08:57:30;;;;;;;36.48;21.68;;;;;;;0.17;85.24;97279.41;1746290;79;20993;-67
2020/12/28 09:00:06;;;;;;;18.73;12.03;;;;;;;0.21;85.23;97259.56;1748304;79;21050;-68
2020/12/28 09:02:37;;;;;;;22.20;16.75;;;;;;;0.25;85.25;97275.66;1752264;81;21450;-68
2020/12/28 09:05:10;;;;;;;24.98;17.02;;;;;;;0.27;85.21;97266.16;1749239;81;22187;-69
2020/12/28 09:07:39;;;;;;;45.65;35.03;;;;;;;0.31;85.24;97265.10;1748639;81;21685;-69
2020/12/28 09:10:10;;;;;;;26.82;13.72;;;;;;;0.35;85.20;97264.08;1747781;81;21151;-69
2020/12/28 09:12:41;;;;;;;20.08;15.28;;;;;;;0.40;85.21;97262.14;1753670;80;21123;-66
2020/12/28 09:15:11;;;;;;;14.15;9.60;;;;;;;0.43;85.18;97264.56;1752029;80;21155;-68
2020/12/28 09:17:44;;;;;;;24.40;16.85;;;;;;;0.46;85.19;97264.42;1753310;81;21262;-69
2020/12/28 09:20:13;;;;;;;24.30;15.23;;;;;;;0.49;85.17;97251.90;1755281;81;21909;-68
2020/12/28 09:22:42;;;;;;;21.73;15.60;;;;;;;0.50;85.20;97255.66;1758539;80;21013;-67
2020/12/28 09:25:13;;;;;;;22.58;14.87;;;;;;;0.51;85.18;97238.09;1750446;79;21207;-68
2020/12/28 09:27:42;;;;;;;20.55;14.23;;;;;;;0.55;85.16;97238.31;1745926;81;21783;-68
2020/12/28 09:30:11;;;;;;;20.08;14.00;;;;;;;0.56;85.15;97232.30;1754047;81;21420;-68
2020/12/28 09:32:40;;;;;;;25.50;16.60;;;;;;;0.55;85.15;97235.74;1757523;80;21021;-69
2020/12/28 09:35:10;;;;;;;27.70;16.70;;;;;;;0.56;85.18;97228.44;1760013;80;21174;-69
2020/12/28 09:37:40;;;;;;;19.82;12.15;;;;;;;0.58;85.20;97222.76;1757321;81;21144;-69
2020/12/28 09:40:11;;;;;;;21.12;14.25;;;;;;;0.60;85.18;97219.67;1748313;80;21132;-68
2020/12/28 09:42:40;;;;;;;23.98;16.17;;;;;;;0.62;85.20;97221.73;1751352;81;21215;-68
2020/12/28 09:47:50;;;;;;;20.90;13.78;;;;;;;0.73;85.21;97220.37;1836257;76;22796;-67
2020/12/28 09:50:18;;;;;;;23.20;14.47;;;;;;;0.73;85.17;97217.80;1801300;77;20977;-67
2020/12/28 09:52:47;;;;;;;20.23;13.68;;;;;;;0.76;85.19;97222.81;1796952;78;22081;-66
2020/12/28 09:55:16;;;;;;;18.45;11.68;;;;;;;0.80;85.17;97224.32;1814030;77;20972;-66
2020/12/28 09:57:45;;;;;;;18.45;10.88;;;;;;;0.82;85.23;97203.25;1804156;77;21043;-65
2020/12/28 10:00:13;;;;;;;20.92;14.50;;;;;;;0.87;85.20;97197.45;1803718;77;21083;-67
2020/12/28 10:02:42;;;;;;;22.17;15.18;;;;;;;0.93;85.19;97189.43;1811364;77;21075;-67
2020/12/28 10:05:12;;;;;;;20.35;11.38;;;;;;;0.99;85.14;97192.98;1801526;77;21200;-67
2020/12/28 10:07:40;;;;;;;21.77;14.68;;;;;;;1.02;85.08;97178.70;1802454;77;21712;-66
2020/12/28 10:10:10;;;;;;;;;;;;;;;1.05;85.12;97173.40;1808583;77;21131;-67
2020/12/28 10:12:38;;;;;;;19.10;13.78;;;;;;;1.11;85.15;97172.27;1807846;77;20236;-67
2020/12/28 10:15:08;;;;;;;22.62;15.53;;;;;;;1.15;85.10;97175.50;1805910;77;21548;-66
2020/12/28 10:17:38;;;;;;;18.55;12.33;;;;;;;1.16;85.06;97168.19;1803833;77;21192;-66
2020/12/28 10:20:06;;;;;;;21.00;14.15;;;;;;;1.15;85.06;97167.80;1798585;77;21008;-66
2020/12/28 10:22:35;;;;;;;;;;;;;;;1.15;85.06;97162.66;1808744;78;21218;-66
2020/12/28 10:25:04;;;;;;;22.27;14.68;;;;;;;1.13;85.10;97160.17;1809937;77;20503;-66
2020/12/28 10:27:36;;;;;;;17.92;10.82;;;;;;;1.12;85.18;97155.92;1804597;77;21163;-65
2020/12/28 10:30:06;;;;;;;19.73;12.70;;;;;;;1.13;85.23;97150.36;1809716;77;21388;-65
2020/12/28 10:32:36;;;;;;;22.27;15.20;;;;;;;1.17;85.27;97142.86;1805404;77;21727;-65
2020/12/28 10:35:08;;;;;;;20.65;16.00;;;;;;;1.20;85.26;97158.12;1807776;77;21158;-66
2020/12/28 10:37:35;;;;;;;18.12;13.45;;;;;;;1.21;85.27;97154.66;1798252;77;21142;-66
2020/12/28 10:40:03;;;;;;;;;;;;;;;1.25;85.28;97151.01;1810043;77;21217;-67
2020/12/28 10:42:32;;;;;;;21.97;16.40;;;;;;;1.27;85.29;97141.48;1806044;77;21192;-66
2020/12/28 10:45:04;;;;;;;21.90;13.25;;;;;;;1.28;85.33;97150.84;1806376;77;21468;-66
2020/12/28 10:47:34;;;;;;;26.33;17.30;;;;;;;1.29;85.29;97143.53;1809768;77;21190;-66
2020/12/28 10:50:02;;;;;;;15.18;11.55;;;;;;;1.31;85.29;97142.98;1816958;78;21052;-66
2020/12/28 10:52:29;;;;;;;26.82;18.05;;;;;;;1.35;85.33;97136.78;1813920;77;21004;-66
2020/12/28 10:54:59;;;;;;;24.85;14.78;;;;;;;1.36;85.25;97138.44;1812351;78;21192;-65
2020/12/28 10:57:33;;;;;;;27.22;16.60;;;;;;;1.39;85.28;97127.99;1804887;77;21580;-66
2020/12/28 11:00:00;;;;;;;24.12;16.85;;;;;;;1.41;85.25;97125.36;1808747;78;21606;-66
2020/12/28 11:02:28;;;;;;;24.50;15.90;;;;;;;1.42;85.30;97134.26;1770737;78;21020;-67
2020/12/28 11:04:56;;;;;;;18.65;13.05;;;;;;;1.48;85.31;97121.08;1742102;80;21585;-66
2020/12/28 11:07:28;;;;;;;20.57;12.53;;;;;;;1.53;85.31;97115.70;1742033;80;21304;-66
2020/12/28 11:09:59;;;;;;;24.75;16.80;;;;;;;1.56;85.23;97112.51;1752747;81;21580;-65
2020/12/28 11:12:28;;;;;;;17.50;10.60;;;;;;;1.58;85.27;97115.02;1749572;80;21116;-66
2020/12/28 11:14:57;;;;;;;23.87;16.55;;;;;;;1.61;85.24;97101.16;1755308;81;21779;-66
2020/12/28 11:17:31;;;;;;;25.68;15.72;;;;;;;1.65;85.27;97094.93;1751458;80;21183;-65
2020/12/28 11:20:01;;;;;;;24.10;16.52;;;;;;;1.67;85.33;97098.26;1755313;81;22070;-66
2020/12/28 11:22:30;;;;;;;22.48;15.00;;;;;;;1.71;85.29;97103.17;1754094;81;21029;-65
2020/12/28 11:24:57;;;;;;;21.50;14.05;;;;;;;1.75;85.19;97107.69;1756981;81;21151;-65
2020/12/28 11:27:31;;;;;;;;;;;;;;;1.76;85.22;97108.91;1755050;80;21187;-66
2020/12/28 11:30:00;;;;;;;22.58;15.32;;;;;;;1.79;85.23;97097.59;1750578;79;20243;-66
2020/12/28 11:32:29;;;;;;;20.37;14.50;;;;;;;1.82;85.24;97105.17;1748317;80;21268;-64
2020/12/28 11:35:01;;;;;;;30.90;20.32;;;;;;;1.86;85.20;97097.65;1753019;81;21080;-64
2020/12/28 11:37:31;;;;;;;23.75;18.57;;;;;;;1.89;85.22;97105.20;1759177;80;21222;-65